createdAt,value
2019-01-31T00:01:55.973Z,96590.84
2019-01-31T00:04:56.405Z,96593.26
2019-01-31T00:08:10.487Z,96592.41
2019-01-31T00:11:07.706Z,96595.47
2019-01-31T00:14:11.380Z,96594.73
2019-01-31T00:17:13.069Z,96599.59
2019-01-31T00:20:10.805Z,96599.63
2019-01-31T00:23:10.524Z,96599.36
2019-01-31T00:26:48.081Z,96602.34
2019-01-31T00:29:37.817Z,96606.38
2019-01-31T00:32:37.132Z,96599.99
2019-01-31T00:41:49.990Z,96613.98
2019-01-31T00:44:45.283Z,96606.20
2019-01-31T00:47:55.261Z,96614.49
2019-01-31T00:50:32.669Z,96611.77
2019-01-31T00:53:25.396Z,96602.11
2019-01-31T00:56:26.747Z,96597.52
2019-01-31T00:59:19.723Z,96608.85
2019-01-31T01:02:12.015Z,96613.09
2019-01-31T01:05:25.639Z,96611.69
2019-01-31T01:08:47.984Z,96611.45
2019-01-31T01:11:46.093Z,96604.16
2019-01-31T01:14:34.954Z,96603.06
2019-01-31T01:17:14.641Z,96612.45
2019-01-31T01:20:19.108Z,96614.34
2019-01-31T01:23:15.975Z,96622.30
2019-01-31T01:25:58.464Z,96616.36
2019-01-31T01:29:03.287Z,96624.75
2019-01-31T01:32:15.419Z,96630.13
2019-01-31T01:35:46.526Z,96626.03
2019-01-31T01:38:40.915Z,96632.75
2019-01-31T01:41:37.477Z,96629.16
2019-01-31T01:44:50.580Z,96625.45
2019-01-31T01:47:36.471Z,96624.12
2019-01-31T01:50:34.142Z,96625.52
2019-01-31T01:53:27.599Z,96630.16
2019-01-31T01:56:28.276Z,96630.93
2019-01-31T01:59:28.568Z,96627.67
2019-01-31T02:02:33.438Z,96629.80
2019-01-31T02:05:13.790Z,96631.20
2019-01-31T02:08:04.253Z,96638.18
2019-01-31T02:11:08.571Z,96636.57
2019-01-31T02:13:58.943Z,96639.52
2019-01-31T02:17:06.893Z,96644.30
2019-01-31T02:20:16.419Z,96640.27
2019-01-31T02:23:10.293Z,96645.34
2019-01-31T02:26:10.807Z,96640.74
2019-01-31T02:29:16.687Z,96640.23
2019-01-31T02:32:13.037Z,96639.97
2019-01-31T02:35:14.020Z,96638.63
2019-01-31T02:38:11.014Z,96644.27
2019-01-31T02:41:03.992Z,96643.52
2019-01-31T02:44:09.594Z,96640.23
2019-01-31T02:47:08.233Z,96647.79
2019-01-31T02:49:51.779Z,96641.61
2019-01-31T02:53:07.808Z,96645.88
2019-01-31T02:55:52.085Z,96652.36
2019-01-31T02:59:11.152Z,96645.20
2019-01-31T03:02:14.860Z,96640.87
2019-01-31T03:05:16.247Z,96655.64
2019-01-31T03:08:27.827Z,96655.05
2019-01-31T03:11:06.456Z,96663.02
2019-01-31T03:13:49.814Z,96662.48
2019-01-31T03:16:59.525Z,96653.22
2019-01-31T03:20:05.769Z,96659.34
2019-01-31T03:23:11.673Z,96657.43
2019-01-31T03:26:02.770Z,96662.30
2019-01-31T03:28:41.481Z,96667.40
2019-01-31T03:31:44.895Z,96669.58
2019-01-31T03:34:41.424Z,96672.77
2019-01-31T03:37:39.181Z,96673.76
2019-01-31T03:40:25.271Z,96677.28
2019-01-31T03:43:23.953Z,96672.89
2019-01-31T03:46:12.830Z,96679.75
2019-01-31T03:48:47.775Z,96677.39
2019-01-31T03:51:35.818Z,96679.81
2019-01-31T03:54:43.403Z,96674.97
2019-01-31T03:57:37.555Z,96680.31
2019-01-31T04:00:38.362Z,96674.07
2019-01-31T04:03:39.361Z,96681.03
2019-01-31T04:06:17.780Z,96681.62
2019-01-31T04:08:46.216Z,96680.83
2019-01-31T04:11:15.097Z,96677.63
2019-01-31T04:13:43.808Z,96681.62
2019-01-31T04:16:12.591Z,96680.34
2019-01-31T04:18:41.380Z,96682.27
2019-01-31T04:21:09.838Z,96678.02
2019-01-31T04:23:38.291Z,96678.59
2019-01-31T04:26:09.161Z,96681.88
2019-01-31T04:28:37.897Z,96680.83
2019-01-31T04:31:06.761Z,96679.55
2019-01-31T04:33:35.199Z,96682.34
2019-01-31T04:36:03.725Z,96688.84
2019-01-31T04:38:32.162Z,96688.66
2019-01-31T04:41:00.607Z,96693.25
2019-01-31T04:43:29.045Z,96691.96
2019-01-31T04:45:57.500Z,96698.19
2019-01-31T04:48:26.333Z,96701.14
2019-01-31T04:50:54.768Z,96699.23
2019-01-31T04:53:23.210Z,96693.94
2019-01-31T04:55:51.968Z,96700.45
2019-01-31T04:58:20.960Z,96697.58
2019-01-31T05:00:49.400Z,96691.98
2019-01-31T05:03:17.839Z,96692.58
2019-01-31T05:05:46.278Z,96698.27
2019-01-31T05:08:14.990Z,96701.03
2019-01-31T05:10:43.587Z,96699.97
2019-01-31T05:13:12.066Z,96703.52
2019-01-31T05:15:40.797Z,96697.64
2019-01-31T05:18:09.745Z,96697.70
2019-01-31T05:20:38.485Z,96700.47
2019-01-31T05:23:06.964Z,96701.02
2019-01-31T05:25:35.382Z,96699.84
2019-01-31T05:28:04.160Z,96694.78
2019-01-31T05:30:32.608Z,96693.97
2019-01-31T05:33:01.746Z,96695.33
2019-01-31T05:35:30.189Z,96703.67
2019-01-31T05:37:58.632Z,96710.61
2019-01-31T05:40:27.386Z,96713.60
2019-01-31T05:42:56.182Z,96706.08
2019-01-31T05:45:24.870Z,96708.78
2019-01-31T05:47:53.649Z,96715.80
2019-01-31T05:50:22.434Z,96722.22
2019-01-31T05:52:50.886Z,96712.08
2019-01-31T05:55:19.346Z,96718.28
2019-01-31T05:57:47.792Z,96718.31
2019-01-31T06:00:20.218Z,96719.14
2019-01-31T06:02:48.685Z,96718.62
2019-01-31T06:05:17.132Z,96722.39
2019-01-31T06:07:46.102Z,96720.80
2019-01-31T06:10:14.548Z,96726.18
2019-01-31T06:12:42.998Z,96728.06
2019-01-31T06:15:13.755Z,96726.98
2019-01-31T06:17:42.196Z,96728.36
2019-01-31T06:20:12.936Z,96739.09
2019-01-31T06:22:41.855Z,96738.03
2019-01-31T06:25:10.323Z,96734.27
2019-01-31T06:27:38.762Z,96745.52
2019-01-31T06:30:08.293Z,96740.70
2019-01-31T06:32:36.766Z,96749.47
2019-01-31T06:35:05.867Z,96737.14
2019-01-31T06:37:34.368Z,96740.36
2019-01-31T06:40:03.070Z,96750.29
2019-01-31T06:42:31.509Z,96751.88
2019-01-31T06:44:59.950Z,96751.05
2019-01-31T06:47:28.656Z,96747.30
2019-01-31T06:49:57.104Z,96752.36
2019-01-31T06:52:25.832Z,96757.47
2019-01-31T06:54:54.589Z,96759.92
2019-01-31T06:57:23.044Z,96760.72
2019-01-31T06:59:51.849Z,96764.97
2019-01-31T07:02:20.567Z,96764.72
2019-01-31T07:04:49.349Z,96757.20
2019-01-31T07:07:18.037Z,96756.66
2019-01-31T07:09:46.488Z,96764.69
2019-01-31T07:12:14.995Z,96770.86
2019-01-31T07:14:43.443Z,96771.41
2019-01-31T07:17:12.472Z,96779.98
2019-01-31T07:19:41.263Z,96781.58
2019-01-31T07:22:10.061Z,96778.66
2019-01-31T07:24:38.774Z,96778.63
2019-01-31T07:27:07.263Z,96784.55
2019-01-31T07:29:35.711Z,96788.83
2019-01-31T07:32:04.504Z,96784.81
2019-01-31T07:34:33.485Z,96786.95
2019-01-31T07:37:01.924Z,96789.36
2019-01-31T07:39:30.379Z,96798.47
2019-01-31T07:41:59.120Z,96798.22
2019-01-31T07:44:27.648Z,96806.79
2019-01-31T07:46:56.386Z,96809.47
2019-01-31T07:49:25.190Z,96818.33
2019-01-31T07:51:53.604Z,96816.70
2019-01-31T07:54:22.058Z,96825.03
2019-01-31T07:56:50.603Z,96826.88
2019-01-31T07:59:19.614Z,96816.67
2019-01-31T08:01:48.711Z,96817.75
2019-01-31T08:04:17.159Z,96819.86
2019-01-31T08:06:45.588Z,96823.11
2019-01-31T08:09:14.355Z,96828.70
2019-01-31T08:11:52.354Z,96826.83
2019-01-31T08:14:13.777Z,96831.91
2019-01-31T08:16:42.219Z,96830.03
2019-01-31T08:19:10.667Z,96831.36
2019-01-31T08:21:41.058Z,96831.08
2019-01-31T08:24:09.712Z,96831.61
2019-01-31T08:26:38.538Z,96832.66
2019-01-31T08:29:07.014Z,96844.92
2019-01-31T08:31:35.829Z,96832.78
2019-01-31T08:34:04.595Z,96833.02
2019-01-31T08:36:33.111Z,96840.22
2019-01-31T08:39:01.883Z,96836.13
2019-01-31T08:41:30.401Z,96844.98
2019-01-31T08:43:58.830Z,96846.03
2019-01-31T08:46:27.279Z,96856.64
2019-01-31T08:48:55.704Z,96851.88
2019-01-31T08:51:24.166Z,96851.93
2019-01-31T08:53:52.957Z,96854.95
2019-01-31T08:56:21.423Z,96849.62
2019-01-31T08:58:49.847Z,96857.42
2019-01-31T09:01:18.528Z,96854.89
2019-01-31T09:03:47.588Z,96854.55
2019-01-31T09:06:16.274Z,96852.48
2019-01-31T09:08:44.707Z,96860.09
2019-01-31T09:11:13.183Z,96854.37
2019-01-31T09:13:41.918Z,96850.92
2019-01-31T09:16:10.362Z,96844.39
2019-01-31T09:18:38.800Z,96850.28
2019-01-31T09:21:34.955Z,96847.73
2019-01-31T09:24:35.152Z,96846.81
2019-01-31T09:27:48.157Z,96844.58
2019-01-31T09:30:58.352Z,96852.84
2019-01-31T09:33:42.070Z,96850.47
2019-01-31T09:36:40.069Z,96849.87
2019-01-31T09:39:35.047Z,96857.36
2019-01-31T09:42:30.791Z,96862.66
2019-01-31T09:45:39.794Z,96857.95
2019-01-31T09:48:22.758Z,96859.23
2019-01-31T09:51:38.298Z,96861.95
2019-01-31T09:54:14.453Z,96864.05
2019-01-31T09:57:06.919Z,96864.70
2019-01-31T10:00:07.543Z,96861.63
2019-01-31T10:03:09.284Z,96865.19
2019-01-31T10:06:16.974Z,96853.19
2019-01-31T10:08:55.218Z,96849.70
2019-01-31T10:11:48.502Z,96853.58
2019-01-31T10:14:56.772Z,96848.62
2019-01-31T10:17:58.326Z,96844.48
2019-01-31T10:20:33.823Z,96846.95
2019-01-31T10:23:30.245Z,96835.27
2019-01-31T10:27:07.522Z,96834.12
2019-01-31T10:29:58.131Z,96836.00
2019-01-31T10:32:51.700Z,96836.05
2019-01-31T10:36:05.801Z,96840.10
2019-01-31T10:39:13.259Z,96838.70
2019-01-31T10:42:07.119Z,96834.94
2019-01-31T10:45:26.612Z,96834.94
2019-01-31T10:48:45.806Z,96846.14
2019-01-31T10:51:50.263Z,96846.45
2019-01-31T10:54:36.449Z,96847.80
2019-01-31T10:57:59.577Z,96844.45
2019-01-31T11:01:07.476Z,96839.76
2019-01-31T11:04:06.096Z,96826.19
2019-01-31T11:07:06.769Z,96833.92
2019-01-31T11:10:19.857Z,96830.92
2019-01-31T11:13:28.950Z,96829.27
2019-01-31T11:16:14.700Z,96835.72
2019-01-31T11:19:33.304Z,96828.30
2019-01-31T11:22:33.823Z,96818.02
2019-01-31T11:25:11.433Z,96816.86
2019-01-31T11:28:15.315Z,96815.87
2019-01-31T11:31:01.597Z,96811.08
2019-01-31T11:34:13.475Z,96802.56
2019-01-31T11:37:08.989Z,96792.98
2019-01-31T11:39:45.593Z,96796.55
2019-01-31T11:42:34.950Z,96792.66
2019-01-31T11:45:15.622Z,96793.78
2019-01-31T11:48:11.009Z,96791.41
2019-01-31T11:51:15.535Z,96789.20
2019-01-31T11:54:12.210Z,96774.02
2019-01-31T11:57:25.364Z,96774.63
2019-01-31T11:59:53.881Z,96772.05
2019-01-31T12:02:22.409Z,96767.88
2019-01-31T12:04:50.856Z,96768.05
2019-01-31T12:07:19.346Z,96765.62
2019-01-31T12:09:48.313Z,96756.52
2019-01-31T12:12:16.750Z,96764.58
2019-01-31T12:14:45.521Z,96756.12
2019-01-31T12:17:13.948Z,96758.05
2019-01-31T12:19:42.652Z,96755.37
2019-01-31T12:22:11.092Z,96756.39
2019-01-31T12:24:39.827Z,96744.78
2019-01-31T12:27:08.250Z,96755.38
2019-01-31T12:29:36.689Z,96756.66
2019-01-31T12:32:07.519Z,96756.14
2019-01-31T12:34:36.618Z,96753.58
2019-01-31T12:37:05.869Z,96760.19
2019-01-31T12:39:34.311Z,96753.44
2019-01-31T12:42:03.480Z,96752.00
2019-01-31T12:44:31.927Z,96753.11
2019-01-31T12:47:00.348Z,96754.85
2019-01-31T12:49:29.442Z,96751.80
2019-01-31T12:51:57.867Z,96752.42
2019-01-31T12:54:26.628Z,96751.86
2019-01-31T12:56:55.286Z,96746.87
2019-01-31T12:59:27.000Z,96753.73
2019-01-31T13:01:55.932Z,96744.81
2019-01-31T13:04:24.366Z,96744.38
2019-01-31T13:06:52.775Z,96752.23
2019-01-31T13:09:21.204Z,96739.69
2019-01-31T13:11:49.881Z,96737.84
2019-01-31T13:14:18.311Z,96731.02
2019-01-31T13:16:47.032Z,96729.07
2019-01-31T13:19:15.429Z,96727.11
2019-01-31T13:21:43.859Z,96728.27
2019-01-31T13:24:12.592Z,96724.33
2019-01-31T13:26:41.030Z,96719.49
2019-01-31T13:29:09.754Z,96724.16
2019-01-31T13:31:38.837Z,96717.39
2019-01-31T13:34:07.520Z,96715.83
2019-01-31T13:36:35.961Z,96718.17
2019-01-31T13:39:10.809Z,96722.73
2019-01-31T13:41:41.803Z,96719.55
2019-01-31T13:44:09.451Z,96725.19
2019-01-31T13:46:37.876Z,96722.13
2019-01-31T13:49:06.298Z,96723.11
2019-01-31T13:51:34.727Z,96720.62
2019-01-31T13:54:03.283Z,96721.22
2019-01-31T13:56:31.658Z,96727.57
2019-01-31T13:59:00.581Z,96726.73
2019-01-31T14:01:29.033Z,96727.31
2019-01-31T14:03:57.512Z,96724.67
2019-01-31T14:06:25.937Z,96726.22
2019-01-31T14:08:54.654Z,96728.75
2019-01-31T14:11:23.132Z,96728.44
2019-01-31T14:13:51.620Z,96730.27
2019-01-31T14:16:20.131Z,96729.78
2019-01-31T14:18:48.880Z,96729.50
2019-01-31T14:21:17.312Z,96731.87
2019-01-31T14:23:45.749Z,96725.33
2019-01-31T14:26:14.187Z,96728.58
2019-01-31T14:28:42.596Z,96733.14
2019-01-31T14:31:11.287Z,96731.63
2019-01-31T14:33:40.005Z,96728.97
2019-01-31T14:36:08.435Z,96723.10
2019-01-31T14:38:36.860Z,96718.68
2019-01-31T14:41:05.286Z,96719.16
2019-01-31T14:43:33.825Z,96716.86
2019-01-31T14:46:02.257Z,96718.44
2019-01-31T14:48:30.796Z,96713.39
2019-01-31T14:50:59.537Z,96714.12
2019-01-31T14:53:27.972Z,96714.45
2019-01-31T14:55:56.704Z,96712.84
2019-01-31T14:58:25.141Z,96714.36
2019-01-31T15:00:53.881Z,96717.08
2019-01-31T15:03:22.314Z,96715.80
2019-01-31T15:05:50.741Z,96716.16
2019-01-31T15:08:19.166Z,96712.00
2019-01-31T15:10:47.588Z,96714.74
2019-01-31T15:13:16.044Z,96712.78
2019-01-31T15:15:44.468Z,96711.31
2019-01-31T15:18:13.236Z,96714.14
2019-01-31T15:20:44.844Z,96714.89
2019-01-31T15:23:13.240Z,96717.30
2019-01-31T15:25:42.073Z,96714.19
2019-01-31T15:28:10.549Z,96719.77
2019-01-31T15:30:38.964Z,96710.83
2019-01-31T15:33:09.692Z,96719.52
2019-01-31T15:35:38.125Z,96721.31
2019-01-31T15:38:06.817Z,96728.23
2019-01-31T15:40:40.544Z,96719.13
2019-01-31T15:43:09.310Z,96724.09
2019-01-31T15:45:38.051Z,96722.28
2019-01-31T15:48:06.897Z,96725.20
2019-01-31T15:50:35.312Z,96729.23
2019-01-31T15:53:04.071Z,96731.09
2019-01-31T15:55:33.718Z,96738.19
2019-01-31T15:58:02.519Z,96736.41
2019-01-31T16:00:40.964Z,96730.64
2019-01-31T16:03:20.558Z,96734.94
2019-01-31T16:05:49.072Z,96731.25
2019-01-31T16:08:17.881Z,96727.90
2019-01-31T16:10:46.358Z,96728.89
2019-01-31T16:13:14.801Z,96725.81
2019-01-31T16:15:44.201Z,96728.02
2019-01-31T16:18:13.332Z,96729.81
2019-01-31T16:20:41.808Z,96720.52
2019-01-31T16:23:11.061Z,96726.19
2019-01-31T16:25:39.495Z,96719.21
2019-01-31T16:28:08.298Z,96718.69
2019-01-31T16:30:36.973Z,96718.36
2019-01-31T16:33:05.929Z,96712.39
2019-01-31T16:35:35.077Z,96711.32
2019-01-31T16:38:03.846Z,96704.54
2019-01-31T16:40:32.268Z,96702.34
2019-01-31T16:43:00.703Z,96702.20
2019-01-31T16:45:29.136Z,96705.74
2019-01-31T16:47:57.872Z,96705.74
2019-01-31T16:50:26.298Z,96704.13
2019-01-31T16:52:55.022Z,96704.39
2019-01-31T16:55:24.935Z,96701.94
2019-01-31T16:57:53.311Z,96704.67
2019-01-31T17:00:27.092Z,96698.53
2019-01-31T17:02:55.514Z,96696.14
2019-01-31T17:05:26.138Z,96696.99
2019-01-31T17:07:54.554Z,96696.14
2019-01-31T17:10:22.984Z,96702.61
2019-01-31T17:12:51.431Z,96702.11
2019-01-31T17:15:20.187Z,96703.20
2019-01-31T17:17:48.635Z,96705.94
2019-01-31T17:20:19.731Z,96701.41
2019-01-31T17:22:48.495Z,96702.20
2019-01-31T17:25:17.183Z,96700.09
2019-01-31T17:27:45.636Z,96704.18
2019-01-31T17:30:17.031Z,96700.98
2019-01-31T17:32:45.776Z,96695.91
2019-01-31T17:35:14.572Z,96701.25
2019-01-31T17:37:43.025Z,96696.69
2019-01-31T17:40:17.840Z,96699.86
2019-01-31T17:42:46.257Z,96704.05
2019-01-31T17:45:15.902Z,96708.98
2019-01-31T17:47:44.335Z,96698.75
2019-01-31T17:50:13.086Z,96698.47
2019-01-31T17:52:41.611Z,96700.59
2019-01-31T17:55:11.715Z,96698.84
2019-01-31T17:57:40.151Z,96699.95
2019-01-31T18:00:38.688Z,96700.19
2019-01-31T18:03:07.187Z,96705.08
2019-01-31T18:05:35.665Z,96701.58
2019-01-31T18:08:04.661Z,96695.38
2019-01-31T18:10:33.341Z,96690.84
2019-01-31T18:13:01.773Z,96691.95
2019-01-31T18:15:41.248Z,96692.78
2019-01-31T18:18:02.779Z,96692.78
2019-01-31T18:20:31.208Z,96696.31
2019-01-31T18:22:59.943Z,96692.55
2019-01-31T18:25:28.394Z,96699.47
2019-01-31T18:27:57.237Z,96690.09
2019-01-31T18:30:27.058Z,96691.43
2019-01-31T18:32:55.518Z,96687.11
2019-01-31T18:35:24.289Z,96682.31
2019-01-31T18:37:52.729Z,96682.00
2019-01-31T18:40:29.216Z,96686.62
2019-01-31T18:42:57.636Z,96680.66
2019-01-31T18:45:27.765Z,96672.05
2019-01-31T18:47:58.602Z,96674.23
2019-01-31T18:50:29.365Z,96677.73
2019-01-31T18:52:57.728Z,96670.70
2019-01-31T18:55:26.429Z,96672.94
2019-01-31T18:57:54.847Z,96671.09
2019-01-31T19:00:31.784Z,96671.41
2019-01-31T19:03:00.219Z,96670.91
2019-01-31T19:05:28.662Z,96674.77
2019-01-31T19:07:57.437Z,96668.30
2019-01-31T19:10:26.144Z,96670.91
2019-01-31T19:12:54.586Z,96667.72
2019-01-31T19:15:26.053Z,96670.50
2019-01-31T19:18:04.957Z,96674.19
2019-01-31T19:20:26.565Z,96671.80
2019-01-31T19:22:56.213Z,96669.66
2019-01-31T19:25:24.667Z,96661.92
2019-01-31T19:27:53.127Z,96658.30
2019-01-31T19:30:33.267Z,96654.30
2019-01-31T19:33:02.089Z,96659.73
2019-01-31T19:35:30.960Z,96656.02
2019-01-31T19:38:01.932Z,96653.28
2019-01-31T19:40:31.960Z,96660.13
2019-01-31T19:43:00.502Z,96658.55
2019-01-31T19:45:31.517Z,96658.05
2019-01-31T19:48:00.416Z,96652.14
2019-01-31T19:50:28.896Z,96649.76
2019-01-31T19:52:57.509Z,96643.80
2019-01-31T19:55:27.017Z,96647.29
2019-01-31T19:57:56.069Z,96652.14
2019-01-31T20:00:24.774Z,96649.22
2019-01-31T20:02:53.546Z,96649.45
2019-01-31T20:05:22.056Z,96647.61
2019-01-31T20:07:50.715Z,96648.95
2019-01-31T20:10:22.834Z,96648.41
2019-01-31T20:12:51.567Z,96638.99
2019-01-31T20:15:19.997Z,96638.41
2019-01-31T20:17:49.039Z,96637.34
2019-01-31T20:20:22.325Z,96634.69
2019-01-31T20:22:51.878Z,96632.31
2019-01-31T20:25:23.392Z,96638.45
2019-01-31T20:27:53.840Z,96636.48
2019-01-31T20:30:24.385Z,96633.22
2019-01-31T20:32:52.969Z,96627.11
2019-01-31T20:35:21.572Z,96624.41
2019-01-31T20:37:50.642Z,96621.19
2019-01-31T20:40:21.652Z,96618.27
2019-01-31T20:42:50.237Z,96623.22
2019-01-31T20:45:18.665Z,96621.11
2019-01-31T20:47:47.263Z,96617.69
2019-01-31T20:50:18.377Z,96616.84
2019-01-31T20:55:21.305Z,96615.23
2019-01-31T20:57:50.124Z,96615.49
2019-01-31T21:00:22.863Z,96609.22
2019-01-31T21:02:52.252Z,96602.80
2019-01-31T21:05:20.748Z,96603.08
2019-01-31T21:07:49.441Z,96596.89
2019-01-31T21:10:18.111Z,96593.37
2019-01-31T21:12:46.969Z,96596.34
2019-01-31T21:15:18.105Z,96591.27
2019-01-31T21:17:46.981Z,96589.43
2019-01-31T21:20:16.635Z,96586.21
2019-01-31T21:22:45.530Z,96589.48
2019-01-31T21:25:14.520Z,96585.22
2019-01-31T21:27:43.086Z,96583.38
2019-01-31T21:30:20.301Z,96582.26
2019-01-31T21:32:49.545Z,96580.42
2019-01-31T21:35:18.739Z,96572.44
2019-01-31T21:37:47.208Z,96566.38
2019-01-31T21:40:15.948Z,96561.09
2019-01-31T21:42:44.398Z,96560.22
2019-01-31T21:45:14.441Z,96563.07
2019-01-31T21:47:43.002Z,96551.75
2019-01-31T21:50:13.727Z,96543.08
2019-01-31T21:52:42.147Z,96537.81
2019-01-31T21:55:11.343Z,96537.59
2019-01-31T21:57:39.960Z,96544.72
2019-01-31T22:00:17.809Z,96534.89
2019-01-31T22:02:46.296Z,96533.42
2019-01-31T22:05:14.967Z,96535.41
2019-01-31T22:07:43.467Z,96531.18
2019-01-31T22:10:12.937Z,96525.37
2019-01-31T22:12:41.764Z,96522.48
2019-01-31T22:15:13.740Z,96517.45
2019-01-31T22:17:42.245Z,96511.64
2019-01-31T22:20:11.221Z,96499.36
2019-01-31T22:22:40.016Z,96504.80
2019-01-31T22:25:10.099Z,96498.98
2019-01-31T22:27:38.547Z,96498.51
2019-01-31T22:30:10.965Z,96502.74
2019-01-31T22:32:39.570Z,96502.20
2019-01-31T22:35:29.403Z,96501.43
2019-01-31T22:37:57.988Z,96498.54
2019-01-31T22:40:26.878Z,96498.42
2019-01-31T22:42:55.805Z,96495.55
2019-01-31T22:45:26.918Z,96503.69
2019-01-31T22:47:56.297Z,96501.36
2019-01-31T22:50:24.894Z,96508.38
2019-01-31T22:52:53.636Z,96512.98
2019-01-31T22:55:23.904Z,96499.12
2019-01-31T22:57:52.472Z,96502.92
2019-01-31T23:00:54.502Z,96504.58
2019-01-31T23:03:23.443Z,96503.02
2019-01-31T23:05:51.941Z,96505.23
2019-01-31T23:08:20.386Z,96503.65
2019-01-31T23:10:48.845Z,96505.59
2019-01-31T23:13:17.299Z,96505.88
2019-01-31T23:15:45.766Z,96504.58
2019-01-31T23:18:14.533Z,96503.56
2019-01-31T23:20:44.450Z,96505.71
2019-01-31T23:23:13.317Z,96507.34
2019-01-31T23:25:43.882Z,96502.27
2019-01-31T23:28:12.640Z,96503.33
2019-01-31T23:30:41.086Z,96499.62
2019-01-31T23:33:09.514Z,96493.64
2019-01-31T23:35:37.959Z,96480.79
2019-01-31T23:38:06.668Z,96483.11
2019-01-31T23:40:35.107Z,96475.90
2019-01-31T23:43:03.825Z,96478.84
2019-01-31T23:45:32.262Z,96477.02
2019-01-31T23:48:00.694Z,96470.38
2019-01-31T23:50:29.137Z,96479.73
2019-01-31T23:52:57.801Z,96467.99
2019-01-31T23:55:26.253Z,96470.42
2019-01-31T23:57:54.697Z,96459.69
